Terminal Aerodrome Forecast
Issued by NWS Sioux Falls, SD

Home | Current Version | Previous Version | Graphics & Text | Print | Product List | Glossary On
Versions: 1 2 3 4 5 6 7 8 9 10 11 12 13 14 15 16
813
FTUS43 KFSD 140526
TAFHON
TAF
KHON 140526Z 1406/1506 34004KT P6SM FEW250
     FM141100 VRB03KT 1SM BR FEW010
     FM141200 33004KT 1/2SM FG SCT003
     FM141400 36006KT 3SM BR SCT008
     FM141500 36006KT P6SM SCT015
     FM141700 03006KT P6SM FEW040
     FM142000 06005KT P6SM FEW200=

USA.gov is the U.S. government's official web portal to all federal, state and local government web resources and services.